sensor_id;sensor_type;location;lat;lon;timestamp;P1;durP1;ratioP1;P2;durP2;ratioP2
60318;SDS011;46163;52.306;5.634;2022-08-19T00:04:27;0.60;;;0.60;;
60318;SDS011;46163;52.306;5.634;2022-08-19T00:06:55;0.70;;;0.70;;
60318;SDS011;46163;52.306;5.634;2022-08-19T00:09:21;0.63;;;0.63;;
60318;SDS011;46163;52.306;5.634;2022-08-19T00:11:48;0.70;;;0.70;;
60318;SDS011;46163;52.306;5.634;2022-08-19T00:14:15;0.80;;;0.80;;
60318;SDS011;46163;52.306;5.634;2022-08-19T00:16:43;0.50;;;0.50;;
60318;SDS011;46163;52.306;5.634;2022-08-19T00:19:10;0.70;;;0.70;;
60318;SDS011;46163;52.306;5.634;2022-08-19T00:21:35;0.35;;;0.35;;
60318;SDS011;46163;52.306;5.634;2022-08-19T00:24:08;0.60;;;0.60;;
60318;SDS011;46163;52.306;5.634;2022-08-19T00:26:35;0.52;;;0.52;;
60318;SDS011;46163;52.306;5.634;2022-08-19T00:29:02;0.57;;;0.57;;
60318;SDS011;46163;52.306;5.634;2022-08-19T00:31:29;0.75;;;0.75;;
60318;SDS011;46163;52.306;5.634;2022-08-19T00:33:56;0.70;;;0.70;;
60318;SDS011;46163;52.306;5.634;2022-08-19T00:36:23;1.02;;;0.68;;
60318;SDS011;46163;52.306;5.634;2022-08-19T00:38:48;0.60;;;0.60;;
60318;SDS011;46163;52.306;5.634;2022-08-19T00:41:19;0.40;;;0.40;;
60318;SDS011;46163;52.306;5.634;2022-08-19T00:44:03;0.57;;;0.57;;
60318;SDS011;46163;52.306;5.634;2022-08-19T00:46:38;0.50;;;0.50;;
60318;SDS011;46163;52.306;5.634;2022-08-19T00:49:27;0.63;;;0.63;;
60318;SDS011;46163;52.306;5.634;2022-08-19T00:51:56;0.70;;;0.70;;
60318;SDS011;46163;52.306;5.634;2022-08-19T00:54:26;0.50;;;0.50;;
60318;SDS011;46163;52.306;5.634;2022-08-19T00:56:52;0.60;;;0.60;;
60318;SDS011;46163;52.306;5.634;2022-08-19T00:59:18;0.60;;;0.60;;
60318;SDS011;46163;52.306;5.634;2022-08-19T01:01:44;0.50;;;0.50;;
60318;SDS011;46163;52.306;5.634;2022-08-19T01:04:11;0.47;;;0.47;;
60318;SDS011;46163;52.306;5.634;2022-08-19T01:06:38;0.60;;;0.60;;
60318;SDS011;46163;52.306;5.634;2022-08-19T01:09:06;0.68;;;0.68;;
60318;SDS011;46163;52.306;5.634;2022-08-19T01:11:43;0.50;;;0.50;;
60318;SDS011;46163;52.306;5.634;2022-08-19T01:14:13;0.63;;;0.63;;
60318;SDS011;46163;52.306;5.634;2022-08-19T01:16:41;0.60;;;0.60;;
60318;SDS011;46163;52.306;5.634;2022-08-19T01:22:12;0.50;;;0.50;;
60318;SDS011;46163;52.306;5.634;2022-08-19T01:24:49;0.60;;;0.60;;
60318;SDS011;46163;52.306;5.634;2022-08-19T01:27:15;0.50;;;0.50;;
60318;SDS011;46163;52.306;5.634;2022-08-19T01:29:41;0.60;;;0.50;;
60318;SDS011;46163;52.306;5.634;2022-08-19T01:32:11;0.80;;;0.80;;
60318;SDS011;46163;52.306;5.634;2022-08-19T01:34:38;0.50;;;0.50;;
60318;SDS011;46163;52.306;5.634;2022-08-19T01:37:06;0.63;;;0.63;;
60318;SDS011;46163;52.306;5.634;2022-08-19T01:39:37;0.73;;;0.73;;
60318;SDS011;46163;52.306;5.634;2022-08-19T01:42:04;0.60;;;0.60;;
60318;SDS011;46163;52.306;5.634;2022-08-19T01:44:32;0.57;;;0.57;;
60318;SDS011;46163;52.306;5.634;2022-08-19T01:46:57;0.50;;;0.50;;
60318;SDS011;46163;52.306;5.634;2022-08-19T01:49:25;0.45;;;0.45;;
60318;SDS011;46163;52.306;5.634;2022-08-19T01:51:51;0.47;;;0.47;;
60318;SDS011;46163;52.306;5.634;2022-08-19T01:54:19;0.90;;;0.90;;
60318;SDS011;46163;52.306;5.634;2022-08-19T01:56:46;0.57;;;0.57;;
60318;SDS011;46163;52.306;5.634;2022-08-19T01:59:14;0.73;;;0.73;;
60318;SDS011;46163;52.306;5.634;2022-08-19T02:01:42;0.55;;;0.55;;
60318;SDS011;46163;52.306;5.634;2022-08-19T02:04:09;0.52;;;0.52;;
60318;SDS011;46163;52.306;5.634;2022-08-19T02:06:35;0.50;;;0.50;;
60318;SDS011;46163;52.306;5.634;2022-08-19T02:09:01;1.10;;;0.45;;
60318;SDS011;46163;52.306;5.634;2022-08-19T02:11:28;0.45;;;0.45;;
60318;SDS011;46163;52.306;5.634;2022-08-19T02:14:00;0.50;;;0.50;;
60318;SDS011;46163;52.306;5.634;2022-08-19T02:16:28;0.80;;;0.80;;
60318;SDS011;46163;52.306;5.634;2022-08-19T02:18:55;0.70;;;0.70;;
60318;SDS011;46163;52.306;5.634;2022-08-19T02:21:21;0.73;;;0.73;;
60318;SDS011;46163;52.306;5.634;2022-08-19T02:23:48;0.70;;;0.70;;
60318;SDS011;46163;52.306;5.634;2022-08-19T02:26:15;0.57;;;0.57;;
60318;SDS011;46163;52.306;5.634;2022-08-19T02:28:42;0.90;;;0.90;;
60318;SDS011;46163;52.306;5.634;2022-08-19T02:31:12;0.60;;;0.60;;
60318;SDS011;46163;52.306;5.634;2022-08-19T02:33:40;0.73;;;0.73;;
60318;SDS011;46163;52.306;5.634;2022-08-19T02:36:06;0.60;;;0.60;;
60318;SDS011;46163;52.306;5.634;2022-08-19T02:38:32;0.75;;;0.75;;
60318;SDS011;46163;52.306;5.634;2022-08-19T02:41:02;0.43;;;0.43;;
60318;SDS011;46163;52.306;5.634;2022-08-19T02:43:36;1.00;;;1.00;;
60318;SDS011;46163;52.306;5.634;2022-08-19T02:46:25;0.70;;;0.70;;
60318;SDS011;46163;52.306;5.634;2022-08-19T02:48:52;0.60;;;0.60;;
60318;SDS011;46163;52.306;5.634;2022-08-19T02:51:23;0.70;;;0.70;;
60318;SDS011;46163;52.306;5.634;2022-08-19T02:53:55;0.70;;;0.70;;
60318;SDS011;46163;52.306;5.634;2022-08-19T02:56:21;0.60;;;0.60;;
60318;SDS011;46163;52.306;5.634;2022-08-19T02:58:49;1.08;;;0.65;;
60318;SDS011;46163;52.306;5.634;2022-08-19T03:01:24;0.65;;;0.65;;
60318;SDS011;46163;52.306;5.634;2022-08-19T03:03:55;0.47;;;0.47;;
60318;SDS011;46163;52.306;5.634;2022-08-19T03:06:22;0.98;;;0.63;;
60318;SDS011;46163;52.306;5.634;2022-08-19T03:08:48;0.50;;;0.50;;
60318;SDS011;46163;52.306;5.634;2022-08-19T03:11:20;0.85;;;0.85;;
60318;SDS011;46163;52.306;5.634;2022-08-19T03:13:48;0.77;;;0.77;;
60318;SDS011;46163;52.306;5.634;2022-08-19T03:16:14;0.70;;;0.70;;
60318;SDS011;46163;52.306;5.634;2022-08-19T03:18:41;0.80;;;0.80;;
60318;SDS011;46163;52.306;5.634;2022-08-19T03:21:07;0.50;;;0.50;;
60318;SDS011;46163;52.306;5.634;2022-08-19T03:23:33;0.50;;;0.50;;
60318;SDS011;46163;52.306;5.634;2022-08-19T03:26:02;0.60;;;0.60;;
60318;SDS011;46163;52.306;5.634;2022-08-19T03:28:38;0.98;;;0.80;;
60318;SDS011;46163;52.306;5.634;2022-08-19T03:31:10;0.80;;;0.80;;
60318;SDS011;46163;52.306;5.634;2022-08-19T03:33:38;0.60;;;0.60;;
60318;SDS011;46163;52.306;5.634;2022-08-19T03:36:06;0.50;;;0.50;;
60318;SDS011;46163;52.306;5.634;2022-08-19T03:38:34;0.68;;;0.68;;
60318;SDS011;46163;52.306;5.634;2022-08-19T03:41:08;0.80;;;0.80;;
60318;SDS011;46163;52.306;5.634;2022-08-19T03:43:37;0.52;;;0.52;;
60318;SDS011;46163;52.306;5.634;2022-08-19T03:46:05;0.90;;;0.90;;
60318;SDS011;46163;52.306;5.634;2022-08-19T03:48:41;0.68;;;0.68;;
60318;SDS011;46163;52.306;5.634;2022-08-19T03:51:14;1.02;;;1.02;;
60318;SDS011;46163;52.306;5.634;2022-08-19T03:53:45;0.77;;;0.77;;
60318;SDS011;46163;52.306;5.634;2022-08-19T03:56:12;1.10;;;1.10;;
60318;SDS011;46163;52.306;5.634;2022-08-19T03:58:38;1.05;;;1.05;;
60318;SDS011;46163;52.306;5.634;2022-08-19T04:01:15;0.70;;;0.70;;
60318;SDS011;46163;52.306;5.634;2022-08-19T04:03:42;0.80;;;0.80;;
60318;SDS011;46163;52.306;5.634;2022-08-19T04:08:38;0.82;;;0.82;;
60318;SDS011;46163;52.306;5.634;2022-08-19T04:11:06;0.70;;;0.70;;
60318;SDS011;46163;52.306;5.634;2022-08-19T04:13:38;0.90;;;0.90;;
60318;SDS011;46163;52.306;5.634;2022-08-19T04:16:04;0.80;;;0.80;;
60318;SDS011;46163;52.306;5.634;2022-08-19T04:18:30;0.82;;;0.82;;
60318;SDS011;46163;52.306;5.634;2022-08-19T04:20:57;0.80;;;0.80;;
60318;SDS011;46163;52.306;5.634;2022-08-19T04:23:23;0.60;;;0.60;;
60318;SDS011;46163;52.306;5.634;2022-08-19T04:25:49;0.77;;;0.77;;
60318;SDS011;46163;52.306;5.634;2022-08-19T04:28:14;0.70;;;0.70;;
60318;SDS011;46163;52.306;5.634;2022-08-19T04:30:44;0.77;;;0.77;;
60318;SDS011;46163;52.306;5.634;2022-08-19T04:33:16;0.60;;;0.60;;
60318;SDS011;46163;52.306;5.634;2022-08-19T04:35:45;0.95;;;0.95;;
60318;SDS011;46163;52.306;5.634;2022-08-19T04:38:15;0.90;;;0.90;;
60318;SDS011;46163;52.306;5.634;2022-08-19T04:40:43;0.73;;;0.73;;
60318;SDS011;46163;52.306;5.634;2022-08-19T04:43:29;1.00;;;1.00;;
60318;SDS011;46163;52.306;5.634;2022-08-19T04:45:55;0.82;;;0.82;;
60318;SDS011;46163;52.306;5.634;2022-08-19T04:48:21;0.85;;;0.85;;
60318;SDS011;46163;52.306;5.634;2022-08-19T04:50:55;0.80;;;0.80;;
60318;SDS011;46163;52.306;5.634;2022-08-19T04:53:25;0.65;;;0.65;;
60318;SDS011;46163;52.306;5.634;2022-08-19T04:55:54;0.80;;;0.80;;
60318;SDS011;46163;52.306;5.634;2022-08-19T04:58:21;0.75;;;0.75;;
60318;SDS011;46163;52.306;5.634;2022-08-19T05:00:48;0.88;;;0.88;;
60318;SDS011;46163;52.306;5.634;2022-08-19T05:03:14;0.90;;;0.90;;
60318;SDS011;46163;52.306;5.634;2022-08-19T05:05:42;0.90;;;0.90;;
60318;SDS011;46163;52.306;5.634;2022-08-19T05:08:12;0.82;;;0.82;;
60318;SDS011;46163;52.306;5.634;2022-08-19T05:10:45;0.90;;;0.90;;
60318;SDS011;46163;52.306;5.634;2022-08-19T05:13:13;0.85;;;0.85;;
60318;SDS011;46163;52.306;5.634;2022-08-19T05:15:39;0.80;;;0.80;;
60318;SDS011;46163;52.306;5.634;2022-08-19T05:18:06;0.67;;;0.67;;
60318;SDS011;46163;52.306;5.634;2022-08-19T05:20:50;0.90;;;0.90;;
60318;SDS011;46163;52.306;5.634;2022-08-19T05:23:34;0.90;;;0.90;;
60318;SDS011;46163;52.306;5.634;2022-08-19T05:26:00;0.90;;;0.90;;
60318;SDS011;46163;52.306;5.634;2022-08-19T05:28:25;0.75;;;0.75;;
60318;SDS011;46163;52.306;5.634;2022-08-19T05:30:52;0.90;;;0.90;;
60318;SDS011;46163;52.306;5.634;2022-08-19T05:35:46;1.08;;;1.08;;
60318;SDS011;46163;52.306;5.634;2022-08-19T05:38:15;1.10;;;1.10;;
60318;SDS011;46163;52.306;5.634;2022-08-19T05:40:44;1.20;;;1.20;;
60318;SDS011;46163;52.306;5.634;2022-08-19T05:43:12;1.00;;;1.00;;
60318;SDS011;46163;52.306;5.634;2022-08-19T05:45:40;1.50;;;1.40;;
60318;SDS011;46163;52.306;5.634;2022-08-19T05:48:10;1.10;;;1.10;;
60318;SDS011;46163;52.306;5.634;2022-08-19T05:50:37;1.02;;;1.02;;
60318;SDS011;46163;52.306;5.634;2022-08-19T05:53:05;1.23;;;1.13;;
60318;SDS011;46163;52.306;5.634;2022-08-19T05:55:31;1.30;;;1.30;;
60318;SDS011;46163;52.306;5.634;2022-08-19T05:57:56;1.10;;;1.10;;
60318;SDS011;46163;52.306;5.634;2022-08-19T06:00:22;1.05;;;1.05;;
60318;SDS011;46163;52.306;5.634;2022-08-19T06:02:48;1.63;;;1.10;;
60318;SDS011;46163;52.306;5.634;2022-08-19T06:05:17;1.35;;;1.20;;
60318;SDS011;46163;52.306;5.634;2022-08-19T06:07:43;1.23;;;1.17;;
60318;SDS011;46163;52.306;5.634;2022-08-19T06:12:36;1.08;;;1.08;;
60318;SDS011;46163;52.306;5.634;2022-08-19T06:15:04;1.25;;;1.15;;
60318;SDS011;46163;52.306;5.634;2022-08-19T06:17:40;1.42;;;1.33;;
60318;SDS011;46163;52.306;5.634;2022-08-19T06:20:08;1.77;;;1.33;;
60318;SDS011;46163;52.306;5.634;2022-08-19T06:22:46;1.23;;;1.13;;
60318;SDS011;46163;52.306;5.634;2022-08-19T06:25:17;1.20;;;1.10;;
60318;SDS011;46163;52.306;5.634;2022-08-19T06:27:43;1.92;;;1.80;;
60318;SDS011;46163;52.306;5.634;2022-08-19T06:30:10;2.97;;;1.80;;
60318;SDS011;46163;52.306;5.634;2022-08-19T06:32:37;1.70;;;1.60;;
60318;SDS011;46163;52.306;5.634;2022-08-19T06:35:03;2.45;;;1.42;;
60318;SDS011;46163;52.306;5.634;2022-08-19T06:37:29;2.22;;;1.80;;
60318;SDS011;46163;52.306;5.634;2022-08-19T06:39:55;2.20;;;1.60;;
60318;SDS011;46163;52.306;5.634;2022-08-19T06:42:21;1.95;;;1.60;;
60318;SDS011;46163;52.306;5.634;2022-08-19T06:44:47;1.50;;;1.40;;
60318;SDS011;46163;52.306;5.634;2022-08-19T06:47:14;1.60;;;1.50;;
60318;SDS011;46163;52.306;5.634;2022-08-19T06:49:41;1.60;;;1.50;;
60318;SDS011;46163;52.306;5.634;2022-08-19T06:52:07;1.45;;;1.35;;
60318;SDS011;46163;52.306;5.634;2022-08-19T06:54:33;2.55;;;1.45;;
60318;SDS011;46163;52.306;5.634;2022-08-19T06:56:59;1.60;;;1.50;;
60318;SDS011;46163;52.306;5.634;2022-08-19T06:59:27;1.67;;;1.50;;
60318;SDS011;46163;52.306;5.634;2022-08-19T07:01:57;2.75;;;1.40;;
60318;SDS011;46163;52.306;5.634;2022-08-19T07:04:29;2.33;;;1.60;;
60318;SDS011;46163;52.306;5.634;2022-08-19T07:06:58;1.83;;;1.40;;
60318;SDS011;46163;52.306;5.634;2022-08-19T07:09:31;1.50;;;1.35;;
60318;SDS011;46163;52.306;5.634;2022-08-19T07:11:57;1.50;;;1.40;;
60318;SDS011;46163;52.306;5.634;2022-08-19T07:14:26;1.20;;;1.20;;
60318;SDS011;46163;52.306;5.634;2022-08-19T07:16:53;1.53;;;1.43;;
60318;SDS011;46163;52.306;5.634;2022-08-19T07:19:20;1.55;;;1.45;;
60318;SDS011;46163;52.306;5.634;2022-08-19T07:21:48;1.40;;;1.30;;
60318;SDS011;46163;52.306;5.634;2022-08-19T07:24:17;1.50;;;1.40;;
60318;SDS011;46163;52.306;5.634;2022-08-19T07:26:44;1.40;;;1.30;;
60318;SDS011;46163;52.306;5.634;2022-08-19T07:29:11;1.63;;;1.52;;
60318;SDS011;46163;52.306;5.634;2022-08-19T07:31:37;1.23;;;1.20;;
60318;SDS011;46163;52.306;5.634;2022-08-19T07:34:03;1.50;;;1.30;;
60318;SDS011;46163;52.306;5.634;2022-08-19T07:36:33;1.50;;;1.40;;
60318;SDS011;46163;52.306;5.634;2022-08-19T07:39:01;1.50;;;1.40;;
60318;SDS011;46163;52.306;5.634;2022-08-19T07:41:30;1.50;;;1.40;;
60318;SDS011;46163;52.306;5.634;2022-08-19T07:43:57;1.50;;;1.40;;
60318;SDS011;46163;52.306;5.634;2022-08-19T07:46:28;1.40;;;1.30;;
60318;SDS011;46163;52.306;5.634;2022-08-19T07:51:21;1.80;;;1.60;;
60318;SDS011;46163;52.306;5.634;2022-08-19T07:53:48;1.48;;;1.38;;
60318;SDS011;46163;52.306;5.634;2022-08-19T07:56:18;1.58;;;1.48;;
60318;SDS011;46163;52.306;5.634;2022-08-19T07:58:45;1.98;;;1.50;;
60318;SDS011;46163;52.306;5.634;2022-08-19T08:01:15;1.40;;;1.30;;
60318;SDS011;46163;52.306;5.634;2022-08-19T08:03:49;1.70;;;1.60;;
60318;SDS011;46163;52.306;5.634;2022-08-19T08:06:34;1.50;;;1.40;;
60318;SDS011;46163;52.306;5.634;2022-08-19T08:09:32;2.53;;;1.85;;
60318;SDS011;46163;52.306;5.634;2022-08-19T08:12:02;1.70;;;1.60;;
60318;SDS011;46163;52.306;5.634;2022-08-19T08:14:58;1.60;;;1.50;;
60318;SDS011;46163;52.306;5.634;2022-08-19T08:17:29;1.73;;;1.63;;
60318;SDS011;46163;52.306;5.634;2022-08-19T08:22:23;2.78;;;1.90;;
60318;SDS011;46163;52.306;5.634;2022-08-19T08:25:12;1.70;;;1.60;;
60318;SDS011;46163;52.306;5.634;2022-08-19T08:27:42;2.08;;;1.90;;
60318;SDS011;46163;52.306;5.634;2022-08-19T08:30:14;1.90;;;1.80;;
60318;SDS011;46163;52.306;5.634;2022-08-19T08:32:43;1.80;;;1.70;;
60318;SDS011;46163;52.306;5.634;2022-08-19T08:35:11;2.42;;;2.10;;
60318;SDS011;46163;52.306;5.634;2022-08-19T08:37:41;2.97;;;2.13;;
60318;SDS011;46163;52.306;5.634;2022-08-19T08:40:16;3.05;;;2.35;;
60318;SDS011;46163;52.306;5.634;2022-08-19T08:42:45;3.30;;;2.17;;
60318;SDS011;46163;52.306;5.634;2022-08-19T08:45:34;1.58;;;1.50;;
60318;SDS011;46163;52.306;5.634;2022-08-19T08:48:07;1.83;;;1.67;;
60318;SDS011;46163;52.306;5.634;2022-08-19T08:50:42;1.92;;;1.80;;
60318;SDS011;46163;52.306;5.634;2022-08-19T08:53:16;1.83;;;1.70;;
60318;SDS011;46163;52.306;5.634;2022-08-19T08:55:43;1.70;;;1.60;;
60318;SDS011;46163;52.306;5.634;2022-08-19T08:58:15;1.80;;;1.70;;
60318;SDS011;46163;52.306;5.634;2022-08-19T09:00:47;2.25;;;1.80;;
60318;SDS011;46163;52.306;5.634;2022-08-19T09:03:20;1.70;;;1.60;;
60318;SDS011;46163;52.306;5.634;2022-08-19T09:08:19;1.52;;;1.42;;
60318;SDS011;46163;52.306;5.634;2022-08-19T09:10:51;1.80;;;1.70;;
60318;SDS011;46163;52.306;5.634;2022-08-19T09:16:16;1.50;;;1.40;;
60318;SDS011;46163;52.306;5.634;2022-08-19T09:18:47;1.95;;;1.50;;
60318;SDS011;46163;52.306;5.634;2022-08-19T09:21:24;1.73;;;1.63;;
60318;SDS011;46163;52.306;5.634;2022-08-19T09:23:53;1.60;;;1.50;;
60318;SDS011;46163;52.306;5.634;2022-08-19T09:26:27;2.20;;;1.70;;
60318;SDS011;46163;52.306;5.634;2022-08-19T09:28:53;1.85;;;1.70;;
60318;SDS011;46163;52.306;5.634;2022-08-19T09:34:45;1.50;;;1.40;;
60318;SDS011;46163;52.306;5.634;2022-08-19T09:37:10;1.67;;;1.58;;
60318;SDS011;46163;52.306;5.634;2022-08-19T09:39:37;1.63;;;1.52;;
60318;SDS011;46163;52.306;5.634;2022-08-19T09:42:04;1.60;;;1.50;;
60318;SDS011;46163;52.306;5.634;2022-08-19T09:44:33;1.50;;;1.40;;
60318;SDS011;46163;52.306;5.634;2022-08-19T09:47:00;1.63;;;1.52;;
60318;SDS011;46163;52.306;5.634;2022-08-19T09:49:26;2.53;;;1.60;;
60318;SDS011;46163;52.306;5.634;2022-08-19T09:51:52;1.60;;;1.50;;
60318;SDS011;46163;52.306;5.634;2022-08-19T09:54:21;1.73;;;1.63;;
60318;SDS011;46163;52.306;5.634;2022-08-19T09:56:47;1.42;;;1.33;;
60318;SDS011;46163;52.306;5.634;2022-08-19T09:59:13;1.63;;;1.52;;
60318;SDS011;46163;52.306;5.634;2022-08-19T10:01:39;1.38;;;1.33;;
60318;SDS011;46163;52.306;5.634;2022-08-19T10:04:04;1.70;;;1.60;;
60318;SDS011;46163;52.306;5.634;2022-08-19T10:06:35;1.75;;;1.65;;
60318;SDS011;46163;52.306;5.634;2022-08-19T10:09:03;1.58;;;1.48;;
60318;SDS011;46163;52.306;5.634;2022-08-19T10:11:32;1.70;;;1.60;;
60318;SDS011;46163;52.306;5.634;2022-08-19T10:13:59;1.65;;;1.55;;
60318;SDS011;46163;52.306;5.634;2022-08-19T10:16:25;1.65;;;1.55;;
60318;SDS011;46163;52.306;5.634;2022-08-19T10:18:52;1.70;;;1.60;;
60318;SDS011;46163;52.306;5.634;2022-08-19T10:21:22;1.70;;;1.60;;
60318;SDS011;46163;52.306;5.634;2022-08-19T10:23:52;1.67;;;1.58;;
60318;SDS011;46163;52.306;5.634;2022-08-19T10:26:24;1.60;;;1.50;;
60318;SDS011;46163;52.306;5.634;2022-08-19T10:28:53;1.75;;;1.65;;
60318;SDS011;46163;52.306;5.634;2022-08-19T10:31:21;1.70;;;1.60;;
60318;SDS011;46163;52.306;5.634;2022-08-19T10:33:50;1.60;;;1.50;;
60318;SDS011;46163;52.306;5.634;2022-08-19T10:36:24;1.70;;;1.60;;
60318;SDS011;46163;52.306;5.634;2022-08-19T10:38:52;1.52;;;1.42;;
60318;SDS011;46163;52.306;5.634;2022-08-19T10:41:22;1.60;;;1.50;;
60318;SDS011;46163;52.306;5.634;2022-08-19T10:43:53;1.50;;;1.40;;
60318;SDS011;46163;52.306;5.634;2022-08-19T10:46:20;1.60;;;1.50;;
60318;SDS011;46163;52.306;5.634;2022-08-19T10:54:25;1.60;;;1.50;;
60318;SDS011;46163;52.306;5.634;2022-08-19T10:57:11;1.55;;;1.45;;
60318;SDS011;46163;52.306;5.634;2022-08-19T10:59:37;1.83;;;1.73;;
60318;SDS011;46163;52.306;5.634;2022-08-19T11:02:04;1.70;;;1.60;;
60318;SDS011;46163;52.306;5.634;2022-08-19T11:04:33;1.67;;;1.58;;
60318;SDS011;46163;52.306;5.634;2022-08-19T11:07:02;1.40;;;1.30;;
60318;SDS011;46163;52.306;5.634;2022-08-19T11:09:29;1.60;;;1.50;;
60318;SDS011;46163;52.306;5.634;2022-08-19T11:11:56;1.50;;;1.40;;
60318;SDS011;46163;52.306;5.634;2022-08-19T11:14:21;1.40;;;1.30;;
60318;SDS011;46163;52.306;5.634;2022-08-19T11:16:48;1.55;;;1.45;;
60318;SDS011;46163;52.306;5.634;2022-08-19T11:19:16;1.63;;;1.52;;
60318;SDS011;46163;52.306;5.634;2022-08-19T11:21:44;1.83;;;1.67;;
60318;SDS011;46163;52.306;5.634;2022-08-19T11:24:15;1.60;;;1.50;;
60318;SDS011;46163;52.306;5.634;2022-08-19T11:26:45;1.60;;;1.50;;
60318;SDS011;46163;52.306;5.634;2022-08-19T11:29:14;1.95;;;1.50;;
60318;SDS011;46163;52.306;5.634;2022-08-19T11:31:41;1.67;;;1.57;;
60318;SDS011;46163;52.306;5.634;2022-08-19T11:34:09;1.65;;;1.55;;
60318;SDS011;46163;52.306;5.634;2022-08-19T11:36:39;1.55;;;1.45;;
60318;SDS011;46163;52.306;5.634;2022-08-19T11:39:08;4.28;;;1.60;;
60318;SDS011;46163;52.306;5.634;2022-08-19T11:41:35;1.70;;;1.60;;
60318;SDS011;46163;52.306;5.634;2022-08-19T11:44:05;1.70;;;1.60;;
60318;SDS011;46163;52.306;5.634;2022-08-19T11:46:33;1.70;;;1.60;;
60318;SDS011;46163;52.306;5.634;2022-08-19T11:48:59;1.60;;;1.50;;
60318;SDS011;46163;52.306;5.634;2022-08-19T11:51:26;2.45;;;1.50;;
60318;SDS011;46163;52.306;5.634;2022-08-19T11:53:52;1.80;;;1.50;;
60318;SDS011;46163;52.306;5.634;2022-08-19T11:56:19;2.60;;;1.90;;
60318;SDS011;46163;52.306;5.634;2022-08-19T11:58:47;2.83;;;1.60;;
60318;SDS011;46163;52.306;5.634;2022-08-19T12:01:14;1.50;;;1.40;;
60318;SDS011;46163;52.306;5.634;2022-08-19T12:03:41;1.58;;;1.48;;
60318;SDS011;46163;52.306;5.634;2022-08-19T12:06:09;2.80;;;1.70;;
60318;SDS011;46163;52.306;5.634;2022-08-19T12:08:41;3.65;;;1.65;;
60318;SDS011;46163;52.306;5.634;2022-08-19T12:13:34;4.10;;;1.50;;
60318;SDS011;46163;52.306;5.634;2022-08-19T12:16:00;1.60;;;1.50;;
60318;SDS011;46163;52.306;5.634;2022-08-19T12:18:32;3.25;;;1.70;;
60318;SDS011;46163;52.306;5.634;2022-08-19T12:21:06;2.75;;;1.67;;
60318;SDS011;46163;52.306;5.634;2022-08-19T12:23:33;1.70;;;1.58;;
60318;SDS011;46163;52.306;5.634;2022-08-19T12:25:58;1.75;;;1.50;;
60318;SDS011;46163;52.306;5.634;2022-08-19T12:28:25;3.30;;;1.80;;
60318;SDS011;46163;52.306;5.634;2022-08-19T12:30:51;1.83;;;1.63;;
60318;SDS011;46163;52.306;5.634;2022-08-19T12:33:17;1.63;;;1.52;;
60318;SDS011;46163;52.306;5.634;2022-08-19T12:35:44;3.08;;;1.60;;
60318;SDS011;46163;52.306;5.634;2022-08-19T12:38:13;2.33;;;1.70;;
60318;SDS011;46163;52.306;5.634;2022-08-19T12:40:40;4.95;;;1.98;;
60318;SDS011;46163;52.306;5.634;2022-08-19T12:43:09;7.13;;;1.60;;
60318;SDS011;46163;52.306;5.634;2022-08-19T12:45:36;2.67;;;1.77;;
60318;SDS011;46163;52.306;5.634;2022-08-19T12:48:02;3.33;;;2.00;;
60318;SDS011;46163;52.306;5.634;2022-08-19T12:50:29;2.42;;;1.90;;
60318;SDS011;46163;52.306;5.634;2022-08-19T12:52:58;5.85;;;2.05;;
60318;SDS011;46163;52.306;5.634;2022-08-19T12:55:23;1.70;;;1.60;;
60318;SDS011;46163;52.306;5.634;2022-08-19T12:57:49;3.40;;;1.90;;
60318;SDS011;46163;52.306;5.634;2022-08-19T13:00:17;13.90;;;2.20;;
60318;SDS011;46163;52.306;5.634;2022-08-19T13:02:46;4.35;;;2.40;;
60318;SDS011;46163;52.306;5.634;2022-08-19T13:05:18;2.17;;;1.95;;
60318;SDS011;46163;52.306;5.634;2022-08-19T13:07:47;3.63;;;2.15;;
60318;SDS011;46163;52.306;5.634;2022-08-19T13:10:14;2.03;;;1.90;;
60318;SDS011;46163;52.306;5.634;2022-08-19T13:12:42;3.28;;;1.80;;
60318;SDS011;46163;52.306;5.634;2022-08-19T13:15:13;2.58;;;1.90;;
60318;SDS011;46163;52.306;5.634;2022-08-19T13:20:07;2.53;;;1.88;;
60318;SDS011;46163;52.306;5.634;2022-08-19T13:22:34;5.72;;;2.13;;
60318;SDS011;46163;52.306;5.634;2022-08-19T13:25:04;5.50;;;2.00;;
60318;SDS011;46163;52.306;5.634;2022-08-19T13:27:31;5.78;;;2.10;;
60318;SDS011;46163;52.306;5.634;2022-08-19T13:29:56;6.53;;;2.10;;
60318;SDS011;46163;52.306;5.634;2022-08-19T13:32:52;2.08;;;1.88;;
60318;SDS011;46163;52.306;5.634;2022-08-19T13:35:39;4.45;;;2.08;;
60318;SDS011;46163;52.306;5.634;2022-08-19T13:38:10;3.97;;;1.95;;
60318;SDS011;46163;52.306;5.634;2022-08-19T13:40:36;2.65;;;1.83;;
60318;SDS011;46163;52.306;5.634;2022-08-19T13:43:02;3.75;;;1.80;;
60318;SDS011;46163;52.306;5.634;2022-08-19T13:45:29;2.58;;;1.85;;
60318;SDS011;46163;52.306;5.634;2022-08-19T13:48:01;3.72;;;2.13;;
60318;SDS011;46163;52.306;5.634;2022-08-19T13:50:31;2.03;;;1.83;;
60318;SDS011;46163;52.306;5.634;2022-08-19T13:52:58;3.00;;;2.20;;
60318;SDS011;46163;52.306;5.634;2022-08-19T13:55:24;2.53;;;1.95;;
60318;SDS011;46163;52.306;5.634;2022-08-19T13:57:52;2.20;;;1.92;;
60318;SDS011;46163;52.306;5.634;2022-08-19T14:00:19;1.77;;;1.63;;
60318;SDS011;46163;52.306;5.634;2022-08-19T14:02:47;2.35;;;1.60;;
60318;SDS011;46163;52.306;5.634;2022-08-19T14:05:15;3.42;;;1.60;;
60318;SDS011;46163;52.306;5.634;2022-08-19T14:07:41;1.83;;;1.50;;
60318;SDS011;46163;52.306;5.634;2022-08-19T14:10:08;3.30;;;1.77;;
60318;SDS011;46163;52.306;5.634;2022-08-19T14:12:35;3.63;;;2.25;;
60318;SDS011;46163;52.306;5.634;2022-08-19T14:15:01;3.42;;;1.50;;
60318;SDS011;46163;52.306;5.634;2022-08-19T14:17:28;1.60;;;1.50;;
60318;SDS011;46163;52.306;5.634;2022-08-19T14:19:58;1.77;;;1.63;;
60318;SDS011;46163;52.306;5.634;2022-08-19T14:22:30;6.85;;;1.60;;
60318;SDS011;46163;52.306;5.634;2022-08-19T14:25:03;2.20;;;1.50;;
60318;SDS011;46163;52.306;5.634;2022-08-19T14:27:30;1.80;;;1.50;;
60318;SDS011;46163;52.306;5.634;2022-08-19T14:29:57;1.30;;;1.25;;
60318;SDS011;46163;52.306;5.634;2022-08-19T14:32:23;1.50;;;1.40;;
60318;SDS011;46163;52.306;5.634;2022-08-19T14:34:49;1.80;;;1.70;;
60318;SDS011;46163;52.306;5.634;2022-08-19T14:37:15;4.13;;;1.83;;
60318;SDS011;46163;52.306;5.634;2022-08-19T14:39:41;2.10;;;1.88;;
60318;SDS011;46163;52.306;5.634;2022-08-19T14:42:12;2.30;;;1.83;;
60318;SDS011;46163;52.306;5.634;2022-08-19T14:44:39;3.97;;;2.15;;
60318;SDS011;46163;52.306;5.634;2022-08-19T14:47:17;2.17;;;1.98;;
60318;SDS011;46163;52.306;5.634;2022-08-19T14:49:43;2.40;;;2.20;;
60318;SDS011;46163;52.306;5.634;2022-08-19T14:52:08;4.35;;;2.28;;
60318;SDS011;46163;52.306;5.634;2022-08-19T14:54:34;2.60;;;2.22;;
60318;SDS011;46163;52.306;5.634;2022-08-19T14:57:02;4.18;;;2.60;;
60318;SDS011;46163;52.306;5.634;2022-08-19T14:59:28;5.38;;;3.00;;
60318;SDS011;46163;52.306;5.634;2022-08-19T15:04:21;5.97;;;2.83;;
60318;SDS011;46163;52.306;5.634;2022-08-19T15:06:47;5.28;;;2.90;;
60318;SDS011;46163;52.306;5.634;2022-08-19T15:09:12;5.38;;;2.42;;
60318;SDS011;46163;52.306;5.634;2022-08-19T15:11:38;6.57;;;2.42;;
60318;SDS011;46163;52.306;5.634;2022-08-19T15:14:04;2.53;;;2.20;;
60318;SDS011;46163;52.306;5.634;2022-08-19T15:16:31;5.75;;;2.70;;
60318;SDS011;46163;52.306;5.634;2022-08-19T15:18:57;4.82;;;2.60;;
60318;SDS011;46163;52.306;5.634;2022-08-19T15:21:25;2.58;;;2.33;;
60318;SDS011;46163;52.306;5.634;2022-08-19T15:23:51;6.20;;;2.75;;
60318;SDS011;46163;52.306;5.634;2022-08-19T15:26:36;3.95;;;2.70;;
60318;SDS011;46163;52.306;5.634;2022-08-19T15:29:02;4.53;;;2.80;;
60318;SDS011;46163;52.306;5.634;2022-08-19T15:31:29;3.75;;;2.97;;
60318;SDS011;46163;52.306;5.634;2022-08-19T15:33:59;4.82;;;2.70;;
60318;SDS011;46163;52.306;5.634;2022-08-19T15:36:25;3.53;;;2.50;;
60318;SDS011;46163;52.306;5.634;2022-08-19T15:38:51;3.43;;;2.57;;